Stations météo

Publicité
Isola Stromboli, Italie (16416): Température de l'air & dewpoint: 19.11.2020 23:00:00 - 25.11.2020 23:00:00 (CET)Isola Stromboli, Italie (16416): Vitesse du vent: 19.11.2020 23:00:00 - 25.11.2020 23:00:00 (CET)Isola Stromboli, Italie (16416): Direction du vent: 19.11.2020 23:00:00 - 25.11.2020 23:00:00 (CET)Isola Stromboli, Italie (16416): reduced air pressure: 19.11.2020 23:00:00 - 25.11.2020 23:00:00 (CET)Isola Stromboli, Italie (16416): Quantités de précipitations: 19.11.2020 23:00:00 - 25.11.2020 23:00:00 (CET)
Date & Time tt [°C] td [°C] ff [km/h] ff [knt] dd ppp [hPa] rr [mm]
25.11.2020 23:00:00 14,6 11,7 5 3 S 1022,2 -
25.11.2020 22:00:00 14,8 11,9 4 2 S 1022,1 -
25.11.2020 21:00:00 14,6 11,7 5 3 S 1022,0 -
25.11.2020 20:00:00 14,7 11,6 5 3 S 1021,8 -
25.11.2020 19:00:00 14,8 11,9 5 3 S 1021,6 0,0
25.11.2020 18:00:00 14,6 12,1 4 2 S 1021,4 -
25.11.2020 17:00:00 15,1 12,0 5 3 S 1021,1 -
25.11.2020 16:00:00 15,9 12,6 4 2 S 1021,0 -
25.11.2020 15:00:00 16,3 12,8 9 5 S 1020,9 -
25.11.2020 14:00:00 16,5 12,6 11 6 S 1020,9 -
25.11.2020 13:00:00 16,6 12,7 11 6 S 1021,1 0,0
25.11.2020 12:00:00 16,9 13,5 11 6 S 1021,5 -
25.11.2020 11:00:00 17,5 14,5 15 8 S 1021,7 -
25.11.2020 10:00:00 16,7 13,7 8 4 S 1021,9 -
25.11.2020 09:00:00 16,6 13,1 4 2 S 1021,8 -
25.11.2020 08:00:00 15,8 11,7 5 3 S 1021,5 -
25.11.2020 07:00:00 15,5 11,0 8 4 S 1021,2 0,0
25.11.2020 06:00:00 15,4 12,1 11 6 S 1020,9 -
25.11.2020 05:00:00 15,7 13,1 9 5 S 1020,8 -
25.11.2020 04:00:00 15,7 12,9 11 6 S 1020,8 -
25.11.2020 03:00:00 15,8 13,2 13 7 S 1020,8 -
25.11.2020 02:00:00 15,9 13,8 15 8 S 1020,6 -
25.11.2020 01:00:00 16,0 14,1 15 8 S 1020,9 0,0
25.11.2020 00:00:00 16,2 13,8 4 2 S 1021,5 -
24.11.2020 23:00:00 16,3 13,9 4 2 S 1021,5 -
24.11.2020 22:00:00 16,4 14,3 8 4 S 1021,6 -
24.11.2020 21:00:00 16,3 14,1 5 3 S 1021,7 -
24.11.2020 20:00:00 16,4 14,0 5 3 S 1021,5 -
24.11.2020 19:00:00 16,2 13,6 4 2 S 1021,3 0,0
24.11.2020 18:00:00 16,2 13,6 5 3 S 1021,1 -
24.11.2020 17:00:00 16,6 13,8 4 2 S 1020,9 -
24.11.2020 16:00:00 17,3 14,1 0 0 N 1020,8 -
24.11.2020 15:00:00 17,6 14,2 2 1 S 1020,7 -
24.11.2020 14:00:00 18,0 14,4 4 2 S 1020,8 -
24.11.2020 13:00:00 18,0 14,4 2 1 S 1021,3 0,0
24.11.2020 12:00:00 17,9 14,3 4 2 S 1022,0 -
24.11.2020 11:00:00 17,7 14,3 8 4 S 1022,4 -
24.11.2020 10:00:00 17,9 14,5 5 3 S 1022,2 -
24.11.2020 09:00:00 18,4 14,8 4 2 S 1021,9 -
24.11.2020 08:00:00 16,8 14,0 4 2 S 1021,8 -
24.11.2020 07:00:00 16,3 13,0 4 2 S 1021,5 0,0
24.11.2020 06:00:00 16,4 13,1 2 1 S 1021,5 -
24.11.2020 05:00:00 16,7 13,7 5 3 S 1021,4 -
24.11.2020 04:00:00 16,6 13,2 4 2 S 1021,6 -
24.11.2020 03:00:00 16,7 13,2 8 4 S 1022,0 -
24.11.2020 02:00:00 16,8 14,0 5 3 S 1022,4 -
24.11.2020 01:00:00 16,8 14,6 9 5 S 1022,8 0,0
24.11.2020 00:00:00 17,2 14,2 9 5 S 1023,2 -
23.11.2020 23:00:00 17,1 14,5 11 6 S 1023,0 -
23.11.2020 22:00:00 16,6 13,6 13 7 S 1023,1 -
23.11.2020 21:00:00 16,0 13,6 8 4 S 1023,1 -
23.11.2020 20:00:00 16,1 13,7 9 5 S 1023,2 -
23.11.2020 19:00:00 16,4 14,2 9 5 S 1023,1 0,0
23.11.2020 18:00:00 16,5 14,3 15 8 S 1023,1 -
23.11.2020 17:00:00 16,4 14,3 21 11 S 1023,2 -
23.11.2020 16:00:00 17,0 14,0 18 10 S 1023,1 -
23.11.2020 15:00:00 17,2 14,0 18 10 S 1023,3 -
23.11.2020 14:00:00 17,2 14,8 15 8 S 1023,2 -
23.11.2020 13:00:00 17,0 14,8 18 10 S 1023,7 0,0
23.11.2020 12:00:00 17,4 14,8 21 11 S 1024,2 -
23.11.2020 11:00:00 17,5 14,3 24 13 S 1024,7 -
23.11.2020 10:00:00 17,3 14,5 21 11 S 1024,7 -
23.11.2020 09:00:00 16,7 13,7 24 13 S 1024,5 -
23.11.2020 08:00:00 17,0 14,4 18 10 S 1024,2 -
23.11.2020 07:00:00 17,2 14,9 28 15 S 1023,8 0,0
23.11.2020 06:00:00 17,2 15,1 22 12 S 1023,2 -
23.11.2020 05:00:00 17,2 15,1 22 12 S 1023,0 -
23.11.2020 04:00:00 17,1 15,4 28 15 S 1023,1 -
23.11.2020 03:00:00 17,1 15,2 26 14 S 1023,2 -
23.11.2020 02:00:00 17,1 15,2 26 14 S 1023,2 -
23.11.2020 01:00:00 17,0 14,9 26 14 S 1023,6 0,0
23.11.2020 00:00:00 17,1 15,2 28 15 S 1023,9 -
22.11.2020 23:00:00 16,8 14,9 26 14 S 1023,9 -
22.11.2020 22:00:00 16,2 13,6 22 12 S 1024,3 -
22.11.2020 21:00:00 16,7 13,9 18 10 S 1024,1 -
22.11.2020 20:00:00 16,6 13,8 22 12 S 1023,8 -
22.11.2020 19:00:00 16,4 13,4 22 12 S 1023,4 0,0
22.11.2020 18:00:00 16,7 12,8 15 8 S 1022,8 -
22.11.2020 17:00:00 16,9 13,5 28 15 S 1022,4 -
22.11.2020 16:00:00 17,1 13,3 24 13 S 1021,9 -
22.11.2020 15:00:00 17,4 13,2 16 9 S 1021,5 -
22.11.2020 14:00:00 18,1 13,7 21 11 S 1021,1 -
22.11.2020 13:00:00 18,1 12,9 22 12 S 1021,2 0,0
22.11.2020 12:00:00 17,9 12,9 24 13 S 1021,2 -
22.11.2020 11:00:00 17,4 12,3 21 11 S 1021,1 -
22.11.2020 10:00:00 16,1 11,2 15 8 S 1021,0 -
22.11.2020 09:00:00 15,4 10,1 16 9 S 1020,9 -
22.11.2020 08:00:00 14,5 10,9 13 7 S 1020,6 -
22.11.2020 07:00:00 14,2 10,2 24 13 S 1020,2 0,0
22.11.2020 06:00:00 13,5 9,9 21 11 S 1019,8 -
22.11.2020 05:00:00 14,1 9,9 21 11 S 1019,3 -
22.11.2020 04:00:00 13,7 9,9 18 10 S 1018,7 -
22.11.2020 03:00:00 14,2 10,8 16 9 S 1018,5 -
22.11.2020 02:00:00 13,9 10,3 16 9 S 1018,3 -
22.11.2020 01:00:00 15,1 9,8 18 10 S 1018,2 0,0
22.11.2020 00:00:00 15,1 9,8 18 10 S 1018,0 -
21.11.2020 23:00:00 15,4 9,7 22 12 S 1017,5 -
21.11.2020 22:00:00 15,3 10,2 21 11 S 1017,3 -
21.11.2020 21:00:00 15,4 9,9 22 12 S 1017,4 -
21.11.2020 20:00:00 15,1 10,3 18 10 S 1016,6 -
21.11.2020 19:00:00 14,3 10,9 18 10 S 1016,1 0,0
21.11.2020 18:00:00 13,8 11,7 16 9 S 1015,8 -
21.11.2020 17:00:00 15,9 11,6 31 17 S 1014,7 -
21.11.2020 16:00:00 16,1 12,4 26 14 S 1014,0 -
21.11.2020 15:00:00 16,0 12,3 22 12 S 1013,8 -
21.11.2020 14:00:00 16,3 13,0 24 13 S 1013,6 -
21.11.2020 13:00:00 16,5 14,1 15 8 S 1013,4 0,0
21.11.2020 12:00:00 15,9 13,1 11 6 S 1013,5 -
21.11.2020 11:00:00 14,5 13,2 16 9 S 1014,3 -
21.11.2020 10:00:00 13,7 13,0 22 12 S 1014,3 -
21.11.2020 09:00:00 13,8 13,0 21 11 S 1013,9 -
21.11.2020 08:00:00 13,9 12,9 15 8 S 1012,9 -
21.11.2020 07:00:00 14,6 13,3 9 5 S 1012,1 0,0
21.11.2020 06:00:00 14,9 12,0 15 8 S 1011,3 -
21.11.2020 05:00:00 15,9 11,8 11 6 S 1010,8 -
21.11.2020 04:00:00 15,9 11,8 13 7 S 1010,7 -
21.11.2020 03:00:00 16,0 12,3 9 5 S 1011,0 -
21.11.2020 02:00:00 15,6 11,5 2 1 S 1011,0 -
21.11.2020 01:00:00 15,9 12,6 8 4 S 1011,4 0,0
21.11.2020 00:00:00 15,9 14,2 9 5 S 1011,6 -
20.11.2020 23:00:00 15,6 14,6 22 12 S 1011,2 -
20.11.2020 22:00:00 15,7 14,5 26 14 S 1011,2 -
20.11.2020 21:00:00 16,5 14,3 18 10 S 1010,6 -
20.11.2020 20:00:00 16,7 14,3 16 9 S 1010,5 -
20.11.2020 19:00:00 - - - - - - 0,0
20.11.2020 18:00:00 - - - - - - -
20.11.2020 17:00:00 - - - - - - -
20.11.2020 16:00:00 - - - - - - -
20.11.2020 15:00:00 - - - - - - -
20.11.2020 14:00:00 - - - - - - -
20.11.2020 13:00:00 - - - - - - 0,0
20.11.2020 12:00:00 - - - - - - -
20.11.2020 11:00:00 15,9 15,5 11 6 S 1013,1 -
20.11.2020 10:00:00 16,3 15,6 5 3 S 1013,5 -
20.11.2020 09:00:00 16,4 14,9 4 2 S 1014,0 -
20.11.2020 08:00:00 16,1 14,7 0 0 N 1014,1 -
20.11.2020 07:00:00 15,7 14,8 4 2 S 1014,6 0,0
20.11.2020 06:00:00 15,2 14,2 0 0 N 1014,7 -
20.11.2020 05:00:00 15,8 14,9 8 4 S 1015,1 -
20.11.2020 04:00:00 16,1 15,4 13 7 S 1015,8 -
20.11.2020 03:00:00 16,8 14,7 21 11 S 1016,5 -
20.11.2020 02:00:00 17,6 14,4 15 8 S 1017,3 -
20.11.2020 01:00:00 17,1 14,5 13 7 S 1017,9 0,0
20.11.2020 00:00:00 16,8 14,2 9 5 S 1019,0 -
19.11.2020 23:00:00 17,4 14,6 15 8 S 1019,6 -

tt = Température de l'air
td = dewpoint
ff = Vitesse du vent
dd = Direction du vent
ppp = reduced air pressure
rr = Quantités de précipitations

stations d'obs. à proximité